Time;durP1;ratioP1;P1;durP2;ratioP2;P2;SDS_P1;SDS_P2;PMS_P1;PMS_P2;Temp;Humidity;BMP_temperature;BMP_pressure;BME280_temperature;BME280_humidity;BME280_pressure;Samples;Min_cycle;Max_cycle;Signal;HPM_P1;HPM_P2
2022/07/28 00:00:15;;;;;;;4.90;4.20;;;;;;;18.04;85.24;99498.45;103864;1283;139161;-48
2022/07/28 00:02:42;;;;;;;5.90;4.20;;;;;;;18.04;85.24;99495.69;104030;1283;27499;-48
2022/07/28 00:05:09;;;;;;;7.40;4.20;;;;;;;18.03;85.19;99497.21;103997;1283;23099;-48
2022/07/28 00:07:36;;;;;;;7.80;4.20;;;;;;;17.99;85.09;99503.09;104038;1283;137545;-48
2022/07/28 00:10:04;;;;;;;8.60;5.20;;;;;;;17.96;85.16;99504.41;104067;1283;26485;-48
2022/07/28 00:12:31;;;;;;;5.70;4.20;;;;;;;17.95;85.18;99510.06;103821;1283;139485;-48
2022/07/28 00:14:58;;;;;;;5.90;4.10;;;;;;;17.92;85.11;99507.23;103969;1283;26028;-48
2022/07/28 00:17:24;;;;;;;6.30;4.50;;;;;;;17.93;85.07;99513.02;104338;1278;22587;-48
2022/07/28 00:19:51;;;;;;;7.40;4.90;;;;;;;17.92;85.05;99512.42;108354;1278;139092;-48
2022/07/28 00:22:18;;;;;;;6.50;5.10;;;;;;;17.92;84.95;99503.95;108560;1280;23730;-48
2022/07/28 00:24:45;;;;;;;7.60;4.60;;;;;;;17.91;84.84;99506.27;108499;1277;137726;-48
2022/07/28 00:27:16;;;;;;;10.20;5.10;;;;;;;17.90;84.80;99505.74;108593;1277;23541;-48
2022/07/28 00:29:45;;;;;;;6.40;5.40;;;;;;;17.89;84.75;99506.16;108555;1277;140335;-49
2022/07/28 00:32:17;;;;;;;6.20;5.20;;;;;;;17.85;84.60;99509.60;108649;1277;22476;-49
2022/07/28 00:34:44;;;;;;;7.00;5.30;;;;;;;17.84;84.72;99509.96;108663;1277;22478;-48
2022/07/28 00:37:11;;;;;;;12.60;5.10;;;;;;;17.81;84.84;99511.94;108540;1277;139403;-48
2022/07/28 00:39:40;;;;;;;7.60;4.90;;;;;;;17.77;84.80;99511.52;108648;1277;23234;-48
2022/07/28 00:42:07;;;;;;;7.70;4.90;;;;;;;17.75;85.00;99519.44;108562;1277;138533;-48
2022/07/28 00:44:34;;;;;;;6.90;4.90;;;;;;;17.72;85.21;99518.32;108695;1277;22428;-49
2022/07/28 00:47:01;;;;;;;6.40;4.40;;;;;;;17.71;85.26;99519.60;108649;1277;22494;-49
2022/07/28 00:49:31;;;;;;;5.50;4.80;;;;;;;17.69;85.31;99520.23;108489;1278;140258;-49
2022/07/28 00:51:58;;;;;;;6.30;4.50;;;;;;;17.70;85.33;99520.11;108669;1277;22439;-49
2022/07/28 00:54:25;;;;;;;7.60;4.50;;;;;;;17.70;85.34;99522.26;108510;1277;137897;-49
2022/07/28 00:56:51;;;;;;;6.80;4.60;;;;;;;17.71;85.45;99524.06;108729;1277;22541;-49
2022/07/28 00:59:18;;;;;;;6.10;4.30;;;;;;;17.70;85.44;99514.27;108468;1280;22540;-49
2022/07/28 01:01:47;;;;;;;7.20;4.80;;;;;;;17.69;85.38;99515.55;108555;1277;138066;-49
2022/07/28 01:04:15;;;;;;;6.70;4.50;;;;;;;17.69;85.54;99510.88;108678;1277;23803;-49
2022/07/28 01:06:57;;;;;;;8.00;5.30;;;;;;;17.68;85.40;99508.40;108510;1279;139366;-48
2022/07/28 01:09:50;;;;;;;6.30;5.70;;;;;;;17.66;85.44;99513.40;108567;1277;22502;-48
2022/07/28 01:13:23;;;;;;;12.30;4.90;;;;;;;17.59;85.45;99515.59;108015;1283;139397;-48
2022/07/28 01:16:04;;;;;;;5.10;4.40;;;;;;;17.55;85.71;99515.11;108063;1283;22507;-48
2022/07/28 01:23:27;;;;;;;6.30;4.60;;;;;;;17.50;85.95;99520.54;107442;1289;22480;-48
2022/07/28 01:26:32;;;;;;;5.90;4.70;;;;;;;17.44;86.04;99521.15;107225;1289;139513;-48
2022/07/28 01:29:52;;;;;;;6.50;4.40;;;;;;;17.38;86.33;99526.00;106634;1296;22484;-48
2022/07/28 01:36:51;;;;;;;5.30;4.40;;;;;;;17.33;86.78;99523.70;106504;1297;139908;-49
2022/07/28 01:43:39;;;;;;;6.70;3.70;;;;;;;17.30;86.92;99530.84;106493;1297;139018;-49
2022/07/28 01:53:53;;;;;;;5.40;4.20;;;;;;;17.32;87.24;99533.09;107906;1283;162708;-49
2022/07/28 01:56:35;;;;;;;4.80;4.30;;;;;;;17.33;87.12;99535.17;107815;1284;23292;-49
2022/07/28 01:59:17;;;;;;;4.50;3.80;;;;;;;17.34;87.19;99538.02;107945;1284;22471;-49
2022/07/28 02:01:43;;;;;;;4.90;4.20;;;;;;;17.35;87.10;99535.63;107853;1285;137991;-49
2022/07/28 02:04:32;;;;;;;5.30;3.70;;;;;;;17.34;87.17;99533.23;107869;1285;22532;-48
2022/07/28 02:07:17;;;;;;;5.40;3.70;;;;;;;17.36;86.99;99529.01;108217;1280;138653;-48
2022/07/28 02:09:44;;;;;;;5.40;4.00;;;;;;;17.38;87.04;99523.97;108330;1280;22425;-48
2022/07/28 02:12:12;;;;;;;4.30;3.30;;;;;;;17.38;86.91;99527.44;108397;1280;138136;-47
2022/07/28 02:15:29;;;;;;;7.50;3.60;;;;;;;17.35;86.88;99530.90;108628;1278;22474;-47
2022/07/28 02:18:27;;;;;;;4.00;3.50;;;;;;;17.29;86.75;99531.23;108474;1279;139889;-48
2022/07/28 02:20:54;;;;;;;4.70;3.50;;;;;;;17.26;86.82;99533.64;108517;1277;23298;-47
2022/07/28 02:23:21;;;;;;;8.50;4.10;;;;;;;17.24;86.76;99533.51;108510;1277;22897;-48
2022/07/28 02:26:12;;;;;;;4.20;3.50;;;;;;;17.23;86.75;99536.34;108351;1278;138701;-47
2022/07/28 02:28:45;;;;;;;4.20;3.40;;;;;;;17.20;86.81;99542.16;108592;1279;22449;-48
2022/07/28 02:31:18;;;;;;;4.40;3.90;;;;;;;17.17;86.72;99545.69;108139;1279;138292;-48
2022/07/28 02:33:55;;;;;;;5.10;3.50;;;;;;;17.16;86.69;99550.71;108675;1278;22422;-47
2022/07/28 02:36:55;;;;;;;6.80;3.70;;;;;;;17.15;86.71;99549.54;108402;1279;139219;-47
2022/07/28 02:39:25;;;;;;;4.70;3.10;;;;;;;17.17;86.84;99551.36;108484;1280;23922;-48
2022/07/28 02:42:35;;;;;;;3.50;2.90;;;;;;;17.19;86.61;99554.30;108472;1278;139528;-48
2022/07/28 02:48:58;;;;;;;5.20;3.20;;;;;;;17.21;85.97;99559.78;108435;1278;138394;-47
2022/07/28 02:51:34;;;;;;;5.10;2.90;;;;;;;17.22;85.88;99562.63;108500;1277;22458;-48
2022/07/28 02:54:02;;;;;;;4.20;3.10;;;;;;;17.23;85.51;99564.52;108351;1280;138276;-48
2022/07/28 02:56:29;;;;;;;8.40;3.40;;;;;;;17.24;85.13;99564.58;108505;1280;22925;-47
2022/07/28 02:58:55;;;;;;;3.90;3.10;;;;;;;17.24;84.84;99569.36;108496;1279;22516;-47
2022/07/28 03:01:22;;;;;;;4.90;3.00;;;;;;;17.24;84.62;99570.14;108361;1280;138766;-47
2022/07/28 03:03:49;;;;;;;4.30;3.10;;;;;;;17.25;84.53;99570.90;108451;1277;22494;-47
2022/07/28 03:10:27;;;;;;;3.80;2.90;;;;;;;17.25;84.21;99569.29;108427;1280;22422;-47
2022/07/28 03:13:01;;;;;;;4.50;2.70;;;;;;;17.23;84.10;99563.48;108427;1280;138451;-47
2022/07/28 03:15:28;;;;;;;3.20;2.70;;;;;;;17.27;84.08;99562.61;108062;1277;22612;-47
2022/07/28 03:18:29;;;;;;;4.30;2.60;;;;;;;17.27;83.99;99558.20;104429;1278;138666;-46
2022/07/28 03:20:56;;;;;;;4.00;3.00;;;;;;;17.26;84.02;99556.12;104415;1277;22600;-46
2022/07/28 03:23:33;;;;;;;6.40;2.90;;;;;;;17.25;84.01;99555.65;104422;1277;26210;-46
2022/07/28 03:26:04;;;;;;;3.50;3.20;;;;;;;17.23;84.08;99552.31;104076;1280;24317;-46
2022/07/28 03:28:31;;;;;;;5.20;2.90;;;;;;;17.21;84.18;99548.88;104271;1280;24325;-46
2022/07/28 03:31:04;;;;;;;3.40;3.10;;;;;;;17.21;84.28;99552.27;104170;1277;140524;-46
2022/07/28 03:33:31;;;;;;;4.50;3.30;;;;;;;17.19;84.39;99556.00;104238;1278;22606;-48
2022/07/28 03:36:01;;;;;;;4.50;2.80;;;;;;;17.17;84.41;99567.43;103883;1277;140258;-47
2022/07/28 03:39:03;;;;;;;6.20;2.90;;;;;;;17.16;84.40;99571.21;104335;1277;25255;-48
2022/07/28 03:46:30;;;;;;;4.50;3.10;;;;;;;17.15;83.88;99570.73;104494;1277;22747;-49
2022/07/28 03:48:57;;;;;;;6.80;2.90;;;;;;;17.19;83.64;99578.54;104348;1277;139534;-49
2022/07/28 03:52:14;;;;;;;6.20;3.10;;;;;;;17.21;83.43;99579.33;104495;1278;22998;-49
2022/07/28 03:59:22;;;;;;;4.70;3.00;;;;;;;17.32;82.69;99575.11;108604;1277;22452;-48
2022/07/28 04:01:49;;;;;;;3.90;2.80;;;;;;;17.36;82.32;99574.34;108473;1277;138130;-48
2022/07/28 04:04:16;;;;;;;6.90;3.00;;;;;;;17.39;81.85;99575.33;108770;1277;22588;-48
2022/07/28 04:06:43;;;;;;;3.60;2.60;;;;;;;17.44;81.62;99581.59;108625;1277;139603;-47
2022/07/28 04:09:36;;;;;;;5.80;2.60;;;;;;;17.49;81.25;99586.73;108727;1277;22475;-48
2022/07/28 04:12:09;;;;;;;6.10;2.90;;;;;;;17.55;80.58;99594.14;108552;1277;138692;-48
2022/07/28 04:22:33;;;;;;;5.90;2.70;;;;;;;17.76;76.89;99595.96;108457;1280;22539;-47
2022/07/28 04:30:16;;;;;;;6.40;2.50;;;;;;;17.90;75.73;99601.45;108598;1277;140107;-48
2022/07/28 04:32:50;;;;;;;3.80;2.10;;;;;;;17.95;75.51;99599.32;108636;1277;22447;-48
2022/07/28 04:38:43;;;;;;;6.00;2.80;;;;;;;18.07;75.19;99599.42;108453;1277;22490;-47
2022/07/28 04:41:10;;;;;;;5.10;2.80;;;;;;;18.15;75.11;99601.75;108680;1277;22456;-48
2022/07/28 04:44:01;;;;;;;2.80;1.80;;;;;;;18.22;75.16;99604.73;108266;1280;139143;-47
2022/07/28 04:46:29;;;;;;;3.60;2.10;;;;;;;18.30;74.64;99609.95;108512;1280;22516;-47
2022/07/28 04:48:56;;;;;;;6.00;2.00;;;;;;;18.36;74.24;99609.48;108502;1277;139678;-47
2022/07/28 04:52:19;;;;;;;4.60;2.30;;;;;;;18.40;73.71;99615.31;108648;1279;22488;-48
2022/07/28 04:55:09;;;;;;;8.20;2.40;;;;;;;18.45;73.40;99614.17;108413;1278;139281;-47
2022/07/28 04:57:36;;;;;;;5.20;2.10;;;;;;;18.50;73.08;99612.45;108556;1277;22478;-47
2022/07/28 05:00:12;;;;;;;4.00;2.40;;;;;;;18.51;72.56;99609.71;108490;1277;141542;-48
2022/07/28 05:02:39;;;;;;;7.10;2.10;;;;;;;18.53;72.62;99610.73;108561;1278;22550;-48
2022/07/28 05:05:07;;;;;;;4.60;2.10;;;;;;;18.55;72.66;99623.39;108629;1277;23751;-48
2022/07/28 05:07:34;;;;;;;3.00;2.10;;;;;;;18.59;72.20;99623.34;108530;1277;139589;-48
2022/07/28 05:10:01;;;;;;;2.80;2.10;;;;;;;18.62;71.79;99622.64;108676;1277;23345;-48
2022/07/28 05:12:28;;;;;;;3.90;2.30;;;;;;;18.65;71.44;99624.58;108572;1277;138617;-48
2022/07/28 05:14:55;;;;;;;4.60;2.30;;;;;;;18.69;71.19;99614.52;108668;1277;22446;-48
2022/07/28 05:17:22;;;;;;;5.50;2.30;;;;;;;18.77;71.18;99614.73;108649;1277;23759;-48
2022/07/28 05:19:49;;;;;;;4.90;2.00;;;;;;;18.89;70.25;99616.34;108565;1277;139604;-48
2022/07/28 05:22:16;;;;;;;2.60;2.00;;;;;;;19.05;69.89;99622.29;108649;1277;22532;-48
2022/07/28 05:24:43;;;;;;;3.10;2.20;;;;;;;19.29;69.51;99629.41;108531;1277;139148;-48
2022/07/28 05:27:11;;;;;;;2.80;1.90;;;;;;;19.58;68.60;99630.34;108619;1278;22523;-48
2022/07/28 05:29:40;;;;;;;4.00;1.70;;;;;;;19.89;66.91;99628.10;108593;1277;140455;-48
2022/07/28 05:32:13;;;;;;;2.60;1.70;;;;;;;20.18;65.42;99623.39;108661;1277;22552;-48
2022/07/28 05:34:44;;;;;;;8.90;2.30;;;;;;;20.47;64.44;99626.06;108716;1277;22449;-48
2022/07/28 05:37:11;;;;;;;4.70;1.90;;;;;;;20.79;63.47;99626.02;108487;1278;137642;-48
2022/07/28 05:39:38;;;;;;;3.00;2.00;;;;;;;21.05;61.98;99627.65;108671;1277;23471;-49
2022/07/28 05:42:05;;;;;;;2.30;1.60;;;;;;;21.27;61.30;99630.49;108408;1278;138128;-48
2022/07/28 05:44:31;;;;;;;3.40;1.70;;;;;;;21.51;60.81;99636.52;108482;1280;22474;-49
2022/07/28 05:47:04;;;;;;;3.80;1.70;;;;;;;21.80;59.60;99633.77;108598;1277;22471;-49
2022/07/28 05:49:31;;;;;;;4.80;1.60;;;;;;;22.09;58.94;99635.66;108340;1278;138620;-48
2022/07/28 05:51:58;;;;;;;3.30;1.90;;;;;;;22.40;58.26;99638.65;108690;1277;23456;-48
2022/07/28 05:54:25;;;;;;;3.10;2.30;;;;;;;22.70;57.03;99638.48;108535;1277;137205;-48
2022/07/28 05:56:52;;;;;;;4.30;2.00;;;;;;;22.99;55.51;99644.23;108572;1278;22422;-48
2022/07/28 05:59:18;;;;;;;3.70;2.00;;;;;;;23.16;55.00;99645.61;108536;1277;22604;-48
2022/07/28 06:01:45;;;;;;;4.00;1.80;;;;;;;23.32;54.53;99642.73;108500;1277;138634;-49
2022/07/28 06:04:12;;;;;;;2.40;1.70;;;;;;;23.53;53.70;99647.59;108511;1280;23633;-50
2022/07/28 06:06:55;;;;;;;6.80;1.60;;;;;;;23.65;52.96;99653.99;108508;1277;139103;-49
2022/07/28 06:09:22;;;;;;;5.00;1.70;;;;;;;23.73;52.93;99653.95;108687;1277;23494;-49
2022/07/28 06:11:49;;;;;;;3.40;2.00;;;;;;;23.80;52.12;99653.66;108529;1277;138778;-49
2022/07/28 06:14:17;;;;;;;5.30;1.90;;;;;;;23.67;51.06;99656.77;108594;1277;22602;-49
2022/07/28 06:16:49;;;;;;;5.60;1.80;;;;;;;23.47;50.72;99663.72;108610;1277;22450;-49
2022/07/28 06:19:17;;;;;;;3.20;1.80;;;;;;;23.24;51.41;99668.24;108528;1277;139942;-49
2022/07/28 06:21:44;;;;;;;4.60;1.90;;;;;;;23.03;51.85;99666.08;108651;1277;22615;-49
2022/07/28 06:24:11;;;;;;;9.30;2.10;;;;;;;22.80;52.15;99672.23;108328;1280;137539;-49
2022/07/28 06:26:38;;;;;;;4.70;2.10;;;;;;;22.61;52.60;99675.67;108603;1277;22555;-48
2022/07/28 06:29:11;;;;;;;17.50;2.90;;;;;;;22.42;53.14;99676.41;108574;1278;22464;-49
2022/07/28 06:31:37;;;;;;;5.30;2.20;;;;;;;22.25;53.72;99676.80;108516;1277;138296;-49
2022/07/28 06:34:05;;;;;;;4.40;1.90;;;;;;;22.11;53.95;99676.38;108522;1277;22464;-49
2022/07/28 06:36:32;;;;;;;4.10;2.00;;;;;;;21.96;53.64;99678.55;105917;1280;137611;-48
2022/07/28 06:38:58;;;;;;;4.10;1.60;;;;;;;21.81;54.30;99687.21;104294;1281;22737;-48
2022/07/28 06:41:25;;;;;;;3.60;1.70;;;;;;;21.66;55.16;99687.88;104394;1278;25273;-49
2022/07/28 06:43:52;;;;;;;4.80;1.70;;;;;;;21.54;55.96;99686.64;104036;1281;137590;-48
2022/07/28 06:46:19;;;;;;;3.10;1.90;;;;;;;21.50;55.87;99688.05;104219;1278;23017;-48
2022/07/28 06:48:46;;;;;;;7.80;2.00;;;;;;;21.45;56.07;99691.05;104254;1278;138877;-48
2022/07/28 06:51:17;;;;;;;4.70;1.80;;;;;;;21.35;56.31;99696.27;104269;1280;24466;-49
2022/07/28 06:53:46;;;;;;;2.80;1.60;;;;;;;21.25;56.64;99693.29;108481;1278;138889;-49
2022/07/28 06:56:14;;;;;;;4.50;1.70;;;;;;;21.22;56.74;99694.58;108679;1277;23896;-49
2022/07/28 06:58:41;;;;;;;4.20;1.70;;;;;;;21.22;57.10;99692.72;108710;1277;22545;-49
2022/07/28 07:01:13;;;;;;;5.40;2.10;;;;;;;21.21;56.95;99691.91;108534;1277;137415;-49
2022/07/28 07:03:41;;;;;;;6.30;1.80;;;;;;;21.16;56.76;99691.77;108625;1277;23573;-49
2022/07/28 07:06:09;;;;;;;5.60;1.40;;;;;;;21.15;56.81;99690.84;108351;1279;137872;-49
2022/07/28 07:08:37;;;;;;;4.30;1.60;;;;;;;21.15;56.43;99690.58;108731;1277;22579;-51
2022/07/28 07:11:03;;;;;;;4.40;1.50;;;;;;;21.18;55.36;99691.05;108471;1281;22487;-49
2022/07/28 07:13:31;;;;;;;2.20;1.30;;;;;;;21.22;54.88;99693.31;108560;1277;138838;-49
2022/07/28 07:15:58;;;;;;;3.10;1.40;;;;;;;21.24;54.63;99695.05;108716;1277;22461;-49
2022/07/28 07:18:26;;;;;;;5.20;1.60;;;;;;;21.23;54.69;99696.73;108519;1278;138434;-48
2022/07/28 07:20:53;;;;;;;6.20;1.60;;;;;;;21.22;54.83;99695.42;108632;1277;23864;-49
2022/07/28 07:23:20;;;;;;;5.10;1.80;;;;;;;21.22;55.52;99694.38;108629;1277;22507;-49
2022/07/28 07:25:47;;;;;;;3.10;1.80;;;;;;;21.28;55.09;99696.60;108458;1278;139638;-49
2022/07/28 07:28:14;;;;;;;4.50;1.70;;;;;;;21.35;54.81;99696.52;108517;1277;22465;-49
2022/07/28 07:30:42;;;;;;;4.20;1.50;;;;;;;21.42;53.99;99691.55;108401;1278;138483;-49
2022/07/28 07:33:09;;;;;;;3.20;1.60;;;;;;;21.45;53.80;99694.27;108611;1277;22439;-50
2022/07/28 07:35:36;;;;;;;4.20;1.80;;;;;;;21.51;53.62;99693.95;108575;1277;139638;-64
2022/07/28 07:38:04;;;;;;;3.10;1.60;;;;;;;21.56;52.85;99697.41;108816;1274;22500;-65
2022/07/28 07:40:31;;;;;;;4.20;1.80;;;;;;;21.61;52.91;99702.16;108898;1274;22497;-64
2022/07/28 07:42:58;;;;;;;3.00;1.50;;;;;;;21.65;52.68;99702.48;108777;1274;138025;-64
2022/07/28 07:45:25;;;;;;;3.60;1.30;;;;;;;21.69;52.25;99706.70;108885;1274;22352;-64
2022/07/28 07:47:51;;;;;;;2.50;1.70;;;;;;;21.72;51.89;99708.83;108747;1274;137629;-64
2022/07/28 07:50:18;;;;;;;4.20;1.50;;;;;;;21.74;52.37;99709.88;108812;1274;22549;-65
2022/07/28 07:52:45;;;;;;;5.80;1.80;;;;;;;21.78;52.36;99707.62;108960;1274;23629;-65
2022/07/28 07:55:12;;;;;;;2.80;1.80;;;;;;;21.82;51.85;99705.32;108890;1274;137721;-65
2022/07/28 07:57:39;;;;;;;3.60;1.90;;;;;;;21.84;51.56;99705.73;108922;1274;22439;-65
2022/07/28 08:00:06;;;;;;;1.90;1.10;;;;;;;21.87;50.35;99711.20;108782;1274;139143;-64
2022/07/28 08:02:53;;;;;;;2.60;1.30;;;;;;;21.89;49.99;99709.80;108913;1274;22500;-65
2022/07/28 08:05:20;;;;;;;3.00;1.30;;;;;;;21.88;50.06;99712.38;108884;1274;22550;-57
2022/07/28 08:08:00;;;;;;;9.20;1.50;;;;;;;21.89;50.18;99709.86;108862;1274;23312;-57
2022/07/28 08:10:27;;;;;;;3.50;1.30;;;;;;;21.92;50.39;99713.06;108932;1274;22452;-56
2022/07/28 08:12:54;;;;;;;3.50;1.00;;;;;;;21.93;50.26;99713.10;108794;1274;137813;-57
2022/07/28 08:15:21;;;;;;;4.00;1.70;;;;;;;21.95;49.62;99710.91;108777;1277;22618;-57
2022/07/28 08:17:48;;;;;;;4.30;1.40;;;;;;;21.97;48.98;99709.15;108797;1274;137533;-58
2022/07/28 08:20:14;;;;;;;1.20;1.10;;;;;;;22.01;49.31;99712.32;108906;1274;23408;-58
2022/07/28 08:22:52;;;;;;;1.80;1.00;;;;;;;22.03;49.04;99709.17;108889;1274;22436;-58
2022/07/28 08:25:19;;;;;;;4.10;1.50;;;;;;;22.08;48.60;99712.73;108785;1274;137490;-59
2022/07/28 08:27:46;;;;;;;2.90;1.40;;;;;;;22.13;49.18;99717.93;108925;1274;23252;-58
2022/07/28 08:30:13;;;;;;;2.10;1.50;;;;;;;22.18;49.12;99715.23;108626;1277;138464;-61
2022/07/28 08:32:44;;;;;;;8.50;1.90;;;;;;;22.22;49.20;99710.30;108969;1274;22401;-60
2022/07/28 08:35:23;;;;;;;3.70;1.40;;;;;;;22.27;49.40;99715.88;108837;1274;23308;-62
2022/07/28 08:38:05;;;;;;;2.60;1.50;;;;;;;22.34;48.12;99714.69;108972;1274;23582;-64
2022/07/28 08:40:32;;;;;;;1.70;1.40;;;;;;;22.41;48.25;99717.04;108956;1274;22437;-64
2022/07/28 08:43:11;;;;;;;2.80;1.70;;;;;;;22.46;48.45;99714.19;108791;1274;137682;-64
2022/07/28 08:45:38;;;;;;;3.40;1.20;;;;;;;22.51;48.06;99722.26;108811;1274;22555;-64
2022/07/28 08:48:05;;;;;;;3.40;1.40;;;;;;;22.53;47.98;99709.39;108560;1275;139708;-64
2022/07/28 08:50:34;;;;;;;4.90;1.40;;;;;;;22.52;47.82;99708.34;108891;1274;22461;-64
2022/07/28 08:53:01;;;;;;;4.40;1.70;;;;;;;22.51;48.29;99708.30;108843;1274;22570;-64
2022/07/28 08:55:28;;;;;;;5.30;1.90;;;;;;;22.51;48.57;99708.77;108690;1277;137681;-62
2022/07/28 08:57:58;;;;;;;3.00;1.50;;;;;;;22.54;47.89;99709.34;108863;1274;23277;-62
2022/07/28 09:00:26;;;;;;;5.00;1.60;;;;;;;22.54;47.90;99706.05;108815;1274;139933;-62
2022/07/28 09:02:52;;;;;;;3.80;1.60;;;;;;;22.54;48.11;99703.66;108907;1274;24364;-62
2022/07/28 09:05:20;;;;;;;5.30;1.70;;;;;;;22.57;48.29;99704.50;108849;1274;22454;-62
2022/07/28 09:07:49;;;;;;;2.60;1.50;;;;;;;22.64;48.12;99706.84;108790;1277;139078;-62
2022/07/28 09:10:20;;;;;;;4.70;1.60;;;;;;;22.73;47.95;99714.55;108860;1274;22442;-62
2022/07/28 09:12:47;;;;;;;2.80;1.40;;;;;;;22.80;47.65;99722.46;108801;1274;137632;-62
2022/07/28 09:15:14;;;;;;;12.30;1.80;;;;;;;22.82;46.99;99720.23;108925;1274;23633;-57
2022/07/28 09:17:41;;;;;;;3.70;1.50;;;;;;;22.82;46.77;99717.30;108822;1274;139150;-57
2022/07/28 09:20:09;;;;;;;3.60;1.60;;;;;;;22.84;46.77;99713.72;108832;1275;22468;-56
2022/07/28 09:22:57;;;;;;;2.80;1.40;;;;;;;22.86;47.19;99718.74;108907;1274;23526;-57
2022/07/28 09:25:24;;;;;;;3.70;1.70;;;;;;;22.91;46.63;99714.91;108792;1274;137820;-59
2022/07/28 09:27:50;;;;;;;2.80;1.60;;;;;;;22.96;46.79;99716.04;108923;1274;23165;-56
2022/07/28 09:30:31;;;;;;;9.00;2.00;;;;;;;23.02;47.26;99723.58;108745;1274;138417;-57
2022/07/28 09:33:11;;;;;;;5.10;1.80;;;;;;;23.08;47.08;99723.77;108892;1274;22440;-57
2022/07/28 09:35:57;;;;;;;3.60;1.30;;;;;;;23.13;47.23;99721.80;108737;1274;139139;-56
2022/07/28 09:38:26;;;;;;;4.50;1.40;;;;;;;23.14;46.76;99724.86;109109;1274;22468;-57
2022/07/28 09:41:02;;;;;;;3.80;1.40;;;;;;;23.17;46.37;99726.52;109066;1274;23698;-57
2022/07/28 09:43:30;;;;;;;1.90;1.30;;;;;;;23.20;45.97;99725.45;109088;1274;150510;-56
2022/07/28 09:46:11;;;;;;;4.10;1.50;;;;;;;23.23;45.89;99729.92;109156;1277;23097;-56
2022/07/28 09:48:57;;;;;;;4.00;1.70;;;;;;;23.24;46.29;99728.61;109185;1274;137515;-56
2022/07/28 09:51:26;;;;;;;4.60;2.20;;;;;;;23.24;45.98;99716.19;109036;1274;23260;-57
2022/07/28 09:54:05;;;;;;;3.80;2.00;;;;;;;23.28;46.54;99721.42;108802;1274;138162;-57
2022/07/28 09:56:32;;;;;;;5.30;1.80;;;;;;;23.33;45.78;99727.70;109010;1274;23602;-57
2022/07/28 09:58:59;;;;;;;2.40;1.60;;;;;;;23.38;45.54;99727.71;108942;1274;22463;-57
2022/07/28 10:01:27;;;;;;;3.40;1.50;;;;;;;23.39;45.57;99723.64;108797;1274;138567;-56
2022/07/28 10:04:02;;;;;;;4.10;1.50;;;;;;;23.42;45.17;99726.69;108870;1274;22535;-57
2022/07/28 10:06:31;;;;;;;8.00;1.80;;;;;;;23.45;44.72;99725.27;108805;1274;138206;-57
2022/07/28 10:08:59;;;;;;;3.90;1.70;;;;;;;23.51;44.60;99726.48;108721;1277;23097;-57
2022/07/28 10:11:27;;;;;;;3.00;1.50;;;;;;;23.54;44.47;99726.47;108938;1274;22469;-57
2022/07/28 10:13:56;;;;;;;2.90;1.70;;;;;;;23.57;43.97;99726.81;108868;1274;138959;-57
2022/07/28 10:16:24;;;;;;;3.70;1.70;;;;;;;23.56;43.97;99722.73;109083;1274;22467;-58
2022/07/28 10:18:51;;;;;;;2.80;1.60;;;;;;;23.57;43.92;99727.05;108888;1274;139240;-58
2022/07/28 10:24:19;;;;;;;3.90;2.10;;;;;;;23.49;42.54;99728.95;101460;1309;545258;-57
2022/07/28 10:26:46;;;;;;;7.10;1.60;;;;;;;23.40;43.33;99730.11;107663;1286;22620;-58
2022/07/28 10:29:15;;;;;;;3.70;1.90;;;;;;;23.40;43.69;99725.08;107726;1286;22444;-58
2022/07/28 10:31:45;;;;;;;3.50;2.10;;;;;;;23.45;43.23;99725.70;107644;1286;137088;-55
2022/07/28 10:34:16;;;;;;;3.60;1.80;;;;;;;23.52;43.35;99725.11;107706;1286;22442;-58
2022/07/28 10:36:53;;;;;;;7.00;1.90;;;;;;;23.60;42.91;99722.73;107586;1283;236031;-58
2022/07/28 10:39:21;;;;;;;4.30;1.80;;;;;;;23.70;42.65;99724.77;107916;1285;22515;-55
2022/07/28 10:41:48;;;;;;;3.60;1.80;;;;;;;23.76;42.23;99719.73;107860;1284;137271;-56
2022/07/28 10:44:17;;;;;;;8.30;2.00;;;;;;;23.84;42.24;99731.81;107916;1286;22426;-56
2022/07/28 10:46:45;;;;;;;2.80;1.50;;;;;;;23.89;41.96;99726.11;107925;1283;24936;-56
2022/07/28 10:49:12;;;;;;;3.70;1.50;;;;;;;23.93;41.47;99720.29;107939;1282;138789;-56
2022/07/28 10:51:44;;;;;;;2.70;2.00;;;;;;;23.95;42.42;99718.71;107904;1283;23167;-56
2022/07/28 10:54:33;;;;;;;3.20;1.60;;;;;;;24.03;42.18;99722.38;107539;1285;139277;-56
2022/07/28 10:57:01;;;;;;;3.80;2.00;;;;;;;24.07;42.04;99720.81;107849;1283;23305;-57
2022/07/28 10:59:49;;;;;;;2.80;1.70;;;;;;;24.11;41.79;99725.29;107946;1283;22487;-56
2022/07/28 11:02:46;;;;;;;2.50;1.50;;;;;;;24.13;41.78;99722.27;108063;1283;22395;-56
2022/07/28 11:05:27;;;;;;;6.00;2.30;;;;;;;24.12;42.16;99722.15;107964;1284;22470;-56
2022/07/28 11:07:55;;;;;;;2.90;2.00;;;;;;;24.16;41.93;99724.21;108024;1282;137439;-56
2022/07/28 11:10:22;;;;;;;3.50;1.90;;;;;;;24.20;41.80;99727.63;108087;1283;22557;-57
2022/07/28 11:12:51;;;;;;;4.40;1.70;;;;;;;24.24;41.88;99723.89;107962;1283;137512;-57
2022/07/28 11:15:25;;;;;;;2.60;2.10;;;;;;;24.29;42.08;99723.21;108109;1283;22535;-57
2022/07/28 11:18:08;;;;;;;2.10;1.50;;;;;;;24.36;41.57;99723.77;107768;1286;138773;-57
2022/07/28 11:20:55;;;;;;;3.70;1.90;;;;;;;24.40;40.06;99726.99;108065;1284;23437;-57
2022/07/28 11:23:45;;;;;;;6.20;1.90;;;;;;;24.40;40.07;99711.66;108219;1281;22618;-56
2022/07/28 11:26:19;;;;;;;3.60;2.00;;;;;;;24.41;40.79;99717.23;108257;1281;22438;-56
2022/07/28 11:29:10;;;;;;;5.30;2.10;;;;;;;24.43;40.98;99712.64;108285;1281;23174;-56
2022/07/28 11:31:42;;;;;;;4.20;2.20;;;;;;;24.47;41.49;99710.39;107940;1281;138173;-55
2022/07/28 11:34:16;;;;;;;7.50;2.40;;;;;;;24.49;41.45;99701.14;108197;1281;23210;-55
2022/07/28 11:37:03;;;;;;;9.10;2.70;;;;;;;24.52;41.83;99703.32;108028;1282;138755;-55
2022/07/28 11:39:35;;;;;;;4.10;2.90;;;;;;;24.56;40.88;99703.69;108355;1281;23316;-55
2022/07/28 11:42:28;;;;;;;3.40;1.80;;;;;;;24.56;40.98;99699.23;108030;1282;138706;-55
2022/07/28 11:44:56;;;;;;;4.50;2.40;;;;;;;24.56;40.91;99698.81;108189;1281;22482;-56
2022/07/28 11:47:24;;;;;;;3.40;2.20;;;;;;;24.54;41.03;99692.29;108135;1281;23529;-55
2022/07/28 11:50:11;;;;;;;3.80;2.40;;;;;;;24.53;41.74;99699.27;107968;1282;136971;-56
2022/07/28 11:52:38;;;;;;;4.20;2.20;;;;;;;24.59;41.82;99701.06;108173;1280;22482;-56
2022/07/28 11:55:05;;;;;;;2.30;1.50;;;;;;;24.65;41.74;99697.79;108062;1280;137893;-56
2022/07/28 11:57:39;;;;;;;3.30;1.90;;;;;;;24.70;41.38;99693.87;108213;1281;22440;-56
2022/07/28 12:00:06;;;;;;;3.10;2.00;;;;;;;24.72;41.14;99701.42;108101;1281;138019;-56
2022/07/28 12:02:34;;;;;;;5.30;2.80;;;;;;;24.72;39.90;99698.23;108213;1281;23441;-57
2022/07/28 12:05:06;;;;;;;4.30;2.40;;;;;;;24.71;40.30;99697.70;108244;1281;24569;-56
2022/07/28 12:07:35;;;;;;;7.80;3.10;;;;;;;24.70;41.37;99695.63;108086;1281;137232;-56
2022/07/28 12:10:24;;;;;;;5.10;2.70;;;;;;;24.74;41.11;99697.11;108227;1281;22554;-56
2022/07/28 12:13:11;;;;;;;4.10;2.50;;;;;;;24.78;40.54;99699.65;108095;1281;137476;-56
2022/07/28 12:15:38;;;;;;;5.00;2.00;;;;;;;24.78;39.90;99698.94;108341;1281;22427;-56
2022/07/28 12:18:09;;;;;;;2.80;2.10;;;;;;;24.78;39.74;99697.56;108147;1281;138846;-57
2022/07/28 12:20:43;;;;;;;3.00;2.00;;;;;;;24.79;38.90;99695.29;108231;1281;22473;-57
2022/07/28 12:23:14;;;;;;;4.10;2.20;;;;;;;24.79;39.24;99692.52;108280;1281;23820;-56
2022/07/28 12:25:45;;;;;;;4.70;2.50;;;;;;;24.80;38.94;99692.15;107230;1281;137840;-56
2022/07/28 12:28:21;;;;;;;6.30;3.20;;;;;;;24.83;39.67;99691.27;103936;1281;22595;-56
2022/07/28 12:30:50;;;;;;;4.20;2.70;;;;;;;24.87;39.65;99689.65;108131;1281;138770;-56
2022/07/28 12:33:23;;;;;;;4.50;3.00;;;;;;;24.93;39.49;99698.97;108453;1280;22425;-56
2022/07/28 12:35:55;;;;;;;5.20;2.40;;;;;;;24.97;39.33;99699.47;108290;1280;137714;-56
2022/07/28 12:38:23;;;;;;;5.60;3.10;;;;;;;24.96;39.21;99697.61;108345;1280;22395;-56
2022/07/28 12:40:50;;;;;;;5.10;3.50;;;;;;;24.95;39.02;99696.39;108296;1280;22480;-57
2022/07/28 12:43:21;;;;;;;4.90;3.20;;;;;;;24.92;39.46;99688.48;108293;1280;137746;-56